createdAt,value
2018-08-24T00:01:27.797Z,6.00
2018-08-24T00:04:12.700Z,5.70
2018-08-24T00:06:57.593Z,5.37
2018-08-24T00:09:42.422Z,4.20
2018-08-24T00:12:27.306Z,4.17
2018-08-24T00:15:12.057Z,3.77
2018-08-24T00:17:56.798Z,3.47
2018-08-24T00:20:41.618Z,4.43
2018-08-24T00:23:26.459Z,5.87
2018-08-24T00:26:11.309Z,5.27
2018-08-24T00:28:56.110Z,4.33
2018-08-24T00:31:41.501Z,4.00
2018-08-24T00:34:26.363Z,3.60
2018-08-24T00:37:11.152Z,3.90
2018-08-24T00:39:55.987Z,4.63
2018-08-24T00:42:40.852Z,4.53
2018-08-24T00:45:25.735Z,3.50
2018-08-24T00:48:10.673Z,3.43
2018-08-24T00:50:55.493Z,3.93
2018-08-24T00:53:40.866Z,4.40
2018-08-24T00:56:25.594Z,4.10
2018-08-24T00:59:10.454Z,4.20
2018-08-24T01:01:55.297Z,4.60
2018-08-24T01:04:40.175Z,4.53
2018-08-24T01:07:25.077Z,4.93
2018-08-24T01:10:29.149Z,4.80
2018-08-24T01:13:15.310Z,4.10
2018-08-24T01:16:03.880Z,4.67
2018-08-24T01:18:48.710Z,4.20
2018-08-24T01:21:33.484Z,4.40
2018-08-24T01:24:18.655Z,4.63
2018-08-24T01:27:04.696Z,5.30
2018-08-24T01:29:49.573Z,4.43
2018-08-24T01:32:34.424Z,5.93
2018-08-24T01:35:19.296Z,5.67
2018-08-24T01:38:04.143Z,5.73
2018-08-24T01:40:48.958Z,5.03
2018-08-24T01:43:33.790Z,5.00
2018-08-24T01:46:18.871Z,7.97
2018-08-24T01:49:03.725Z,4.63
2018-08-24T01:51:48.537Z,4.93
2018-08-24T01:54:33.437Z,6.53
2018-08-24T01:57:18.300Z,5.70
2018-08-24T02:00:03.145Z,6.63
2018-08-24T02:02:47.932Z,5.53
2018-08-24T02:05:32.700Z,5.60
2018-08-24T02:08:17.562Z,6.37
2018-08-24T02:11:02.478Z,5.80
2018-08-24T02:13:52.343Z,7.20
2018-08-24T02:16:38.149Z,7.13
2018-08-24T02:19:28.027Z,6.43
2018-08-24T02:22:16.742Z,9.87
2018-08-24T02:25:01.541Z,6.73
2018-08-24T02:27:46.423Z,6.60
2018-08-24T02:30:31.361Z,5.90
2018-08-24T02:33:16.102Z,8.20
2018-08-24T02:36:00.953Z,7.83
2018-08-24T02:38:45.808Z,6.80
2018-08-24T02:41:30.725Z,6.30
2018-08-24T02:44:15.704Z,6.60
2018-08-24T02:47:00.576Z,7.13
2018-08-24T02:49:45.412Z,7.23
2018-08-24T02:52:30.489Z,6.20
2018-08-24T02:55:15.343Z,6.60
2018-08-24T02:58:00.265Z,7.37
2018-08-24T03:00:45.127Z,6.07
2018-08-24T03:03:29.942Z,7.23
2018-08-24T03:06:15.128Z,7.67
2018-08-24T03:08:59.996Z,6.87
2018-08-24T03:11:44.799Z,6.23
2018-08-24T03:14:29.679Z,6.60
2018-08-24T03:17:19.563Z,6.40
2018-08-24T03:20:04.467Z,5.63
2018-08-24T03:22:49.293Z,7.07
2018-08-24T03:25:34.108Z,7.87
2018-08-24T03:28:18.885Z,7.53
2018-08-24T03:31:03.689Z,7.10
2018-08-24T03:33:48.601Z,7.87
2018-08-24T03:36:33.609Z,9.27
2018-08-24T03:39:18.575Z,8.23
2018-08-24T03:42:03.448Z,7.97
2018-08-24T03:44:48.279Z,9.77
2018-08-24T03:47:33.177Z,7.97
2018-08-24T03:50:18.107Z,8.17
2018-08-24T03:53:02.956Z,10.30
2018-08-24T03:55:47.741Z,10.20
2018-08-24T03:58:32.767Z,10.60
2018-08-24T04:01:17.556Z,9.53
2018-08-24T04:04:02.459Z,8.53
2018-08-24T04:06:47.590Z,8.80
2018-08-24T04:09:32.350Z,8.87
2018-08-24T04:12:17.227Z,11.90
2018-08-24T04:15:02.029Z,8.23
2018-08-24T04:17:46.870Z,9.70
2018-08-24T04:20:31.700Z,8.70
2018-08-24T04:23:16.559Z,8.03
2018-08-24T04:26:01.379Z,8.83
2018-08-24T04:28:46.216Z,12.73
2018-08-24T04:31:31.021Z,8.63
2018-08-24T04:34:15.978Z,9.97
2018-08-24T04:37:00.809Z,10.63
2018-08-24T04:39:45.659Z,9.23
2018-08-24T04:42:30.477Z,8.80
2018-08-24T04:45:15.429Z,9.20
2018-08-24T04:48:00.327Z,8.70
2018-08-24T04:50:45.190Z,9.33
2018-08-24T04:53:30.041Z,7.97
2018-08-24T04:56:14.844Z,8.77
2018-08-24T04:59:00.396Z,8.80
2018-08-24T05:01:45.250Z,8.40
2018-08-24T05:04:30.132Z,8.97
2018-08-24T05:07:14.970Z,7.93
2018-08-24T05:09:59.857Z,8.30
2018-08-24T05:12:44.842Z,7.50
2018-08-24T05:15:29.696Z,8.20
2018-08-24T05:18:14.508Z,8.13
2018-08-24T05:20:59.397Z,9.50
2018-08-24T05:23:44.225Z,10.07
2018-08-24T05:26:29.188Z,7.13
2018-08-24T05:29:14.069Z,6.83
2018-08-24T05:31:58.898Z,7.27
2018-08-24T05:34:43.758Z,7.97
2018-08-24T05:37:28.609Z,7.30
2018-08-24T05:40:13.424Z,8.97
2018-08-24T05:42:58.336Z,6.73
2018-08-24T05:45:43.138Z,7.43
2018-08-24T05:48:28.095Z,6.97
2018-08-24T05:51:13.055Z,7.37
2018-08-24T05:53:57.918Z,12.03
2018-08-24T05:56:42.771Z,7.00
2018-08-24T05:59:27.697Z,8.00
2018-08-24T06:02:12.459Z,8.33
2018-08-24T06:04:57.358Z,7.93
2018-08-24T06:07:42.216Z,9.87
2018-08-24T06:10:26.983Z,8.30
2018-08-24T06:13:16.200Z,8.57
2018-08-24T06:16:00.958Z,8.37
2018-08-24T06:18:45.821Z,9.10
2018-08-24T06:21:30.706Z,8.37
2018-08-24T06:24:15.479Z,8.83
2018-08-24T06:27:00.372Z,9.43
2018-08-24T06:29:45.254Z,9.67
2018-08-24T06:32:30.046Z,9.87
2018-08-24T06:35:14.937Z,8.87
2018-08-24T06:37:59.888Z,8.30
2018-08-24T06:40:44.921Z,8.47
2018-08-24T06:43:29.984Z,8.73
2018-08-24T06:46:14.818Z,10.80
2018-08-24T06:48:59.741Z,10.00
2018-08-24T06:51:44.647Z,9.73
2018-08-24T06:54:29.522Z,9.50
2018-08-24T06:57:14.409Z,8.70
2018-08-24T06:59:59.242Z,8.50
2018-08-24T07:02:44.086Z,8.23
2018-08-24T07:05:29.098Z,9.00
2018-08-24T07:08:13.938Z,5.80
2018-08-24T07:10:58.786Z,6.10
2018-08-24T07:13:43.552Z,7.50
2018-08-24T07:16:28.297Z,6.67
2018-08-24T07:19:13.173Z,5.60
2018-08-24T07:21:58.004Z,4.70
2018-08-24T07:24:43.019Z,4.93
2018-08-24T07:27:27.905Z,3.60
2018-08-24T07:30:12.692Z,3.57
2018-08-24T07:32:57.547Z,2.93
2018-08-24T07:35:42.425Z,3.50
2018-08-24T07:38:27.241Z,4.57
2018-08-24T07:41:12.036Z,4.17
2018-08-24T07:43:56.936Z,3.53
2018-08-24T07:46:42.079Z,3.90
2018-08-24T07:49:26.938Z,2.30
2018-08-24T07:52:11.778Z,3.13
2018-08-24T07:54:56.647Z,4.00
2018-08-24T07:57:41.467Z,2.73
2018-08-24T08:00:26.307Z,2.73
2018-08-24T08:03:11.219Z,2.20
2018-08-24T08:05:56.060Z,2.47
2018-08-24T08:08:40.900Z,2.27
2018-08-24T08:11:26.044Z,2.37
2018-08-24T08:14:11.033Z,2.70
2018-08-24T08:16:59.496Z,3.30
2018-08-24T08:19:44.413Z,2.33
2018-08-24T08:22:29.321Z,2.20
2018-08-24T08:25:14.250Z,2.40
2018-08-24T08:27:59.027Z,1.67
2018-08-24T08:30:43.887Z,1.77
2018-08-24T08:33:28.825Z,2.90
2018-08-24T08:36:13.672Z,2.07
2018-08-24T08:38:58.501Z,2.47
2018-08-24T08:41:43.660Z,1.63
2018-08-24T08:44:28.530Z,2.27
2018-08-24T08:47:13.420Z,3.30
2018-08-24T08:49:58.284Z,3.87
2018-08-24T08:52:43.281Z,3.97
2018-08-24T08:55:28.172Z,2.37
2018-08-24T08:58:12.986Z,1.97
2018-08-24T09:00:57.881Z,1.87
2018-08-24T09:03:42.783Z,2.90
2018-08-24T09:06:27.583Z,2.77
2018-08-24T09:09:12.351Z,2.77
2018-08-24T09:11:57.274Z,2.33
2018-08-24T09:14:42.481Z,2.00
2018-08-24T09:17:32.579Z,3.23
2018-08-24T09:20:22.597Z,2.93
2018-08-24T09:23:12.607Z,3.30
2018-08-24T09:26:02.561Z,2.90
2018-08-24T09:28:48.205Z,3.03
2018-08-24T09:31:35.604Z,3.07
2018-08-24T09:34:20.503Z,3.97
2018-08-24T09:37:09.518Z,3.13
2018-08-24T09:39:54.461Z,5.63
2018-08-24T09:42:39.255Z,4.63
2018-08-24T09:45:24.152Z,1.87
2018-08-24T09:48:14.234Z,2.07
2018-08-24T09:51:04.233Z,2.63
2018-08-24T09:53:54.068Z,2.90
2018-08-24T09:56:40.191Z,2.90
2018-08-24T09:59:25.145Z,3.90
2018-08-24T10:02:25.425Z,1.70
2018-08-24T10:05:15.357Z,3.93
2018-08-24T10:08:05.042Z,3.60
2018-08-24T10:10:49.837Z,2.10
2018-08-24T10:13:34.633Z,3.77
2018-08-24T10:16:19.528Z,2.47
2018-08-24T10:19:04.496Z,4.87
2018-08-24T10:21:49.299Z,2.50
2018-08-24T10:24:34.157Z,3.90
2018-08-24T10:27:18.953Z,4.40
2018-08-24T10:30:04.013Z,4.00
2018-08-24T10:32:48.895Z,4.30
2018-08-24T10:35:34.023Z,4.63
2018-08-24T10:38:18.975Z,5.10
2018-08-24T10:41:03.850Z,3.77
2018-08-24T10:43:48.624Z,4.80
2018-08-24T10:46:33.512Z,3.73
2018-08-24T10:49:18.441Z,4.50
2018-08-24T10:52:03.359Z,4.30
2018-08-24T10:54:48.240Z,4.33
2018-08-24T10:57:33.048Z,5.93
2018-08-24T11:00:18.083Z,6.50
2018-08-24T11:03:02.975Z,4.57
2018-08-24T11:05:47.891Z,5.57
2018-08-24T11:08:32.808Z,3.90
2018-08-24T11:11:17.927Z,6.10
2018-08-24T11:14:02.853Z,5.83
2018-08-24T11:16:47.825Z,4.50
2018-08-24T11:19:32.632Z,5.73
2018-08-24T11:22:17.537Z,6.10
2018-08-24T11:25:02.413Z,5.50
2018-08-24T11:27:47.260Z,5.37
2018-08-24T11:30:32.117Z,6.87
2018-08-24T11:33:17.088Z,5.53
2018-08-24T11:36:02.016Z,7.20
2018-08-24T11:38:46.853Z,5.70
2018-08-24T11:41:31.701Z,8.13
2018-08-24T11:44:16.574Z,5.87
2018-08-24T11:47:01.438Z,6.93
2018-08-24T11:49:46.616Z,5.07
2018-08-24T11:52:31.456Z,4.73
2018-08-24T11:55:16.407Z,5.77
2018-08-24T11:58:01.152Z,4.90
2018-08-24T12:00:46.023Z,6.93
2018-08-24T12:03:30.856Z,6.03
2018-08-24T12:06:15.634Z,5.50
2018-08-24T12:09:00.791Z,5.03
2018-08-24T12:11:45.578Z,6.33
2018-08-24T12:14:30.286Z,7.07
2018-08-24T12:17:19.117Z,6.03
2018-08-24T12:20:04.013Z,6.10
2018-08-24T12:22:48.999Z,5.47
2018-08-24T12:25:33.864Z,6.07
2018-08-24T12:28:18.690Z,7.00
2018-08-24T12:31:03.715Z,5.47
2018-08-24T12:33:48.578Z,6.47
2018-08-24T12:36:33.506Z,7.57
2018-08-24T12:39:18.315Z,6.20
2018-08-24T12:42:03.154Z,5.47
2018-08-24T12:44:48.038Z,5.83
2018-08-24T12:47:32.915Z,4.90
2018-08-24T12:50:18.311Z,8.07
2018-08-24T12:53:03.146Z,5.80
2018-08-24T12:55:48.037Z,5.23
2018-08-24T12:58:32.906Z,6.43
2018-08-24T13:01:18.020Z,6.20
2018-08-24T13:04:02.841Z,5.73
2018-08-24T13:06:47.756Z,6.07
2018-08-24T13:09:32.641Z,6.47
2018-08-24T13:12:17.518Z,6.83
2018-08-24T13:15:02.377Z,5.57
2018-08-24T13:17:47.098Z,6.47
2018-08-24T13:20:32.005Z,6.23
2018-08-24T13:23:16.972Z,7.20
2018-08-24T13:26:01.802Z,6.70
2018-08-24T13:28:46.731Z,6.37
2018-08-24T13:31:31.611Z,5.30
2018-08-24T13:34:16.440Z,6.30
2018-08-24T13:37:01.412Z,5.47
2018-08-24T13:39:46.272Z,7.57
2018-08-24T13:42:31.163Z,7.77
2018-08-24T13:45:16.158Z,6.23
2018-08-24T13:48:00.978Z,5.60
2018-08-24T13:50:45.925Z,6.53
2018-08-24T13:53:30.968Z,5.93
2018-08-24T13:56:16.244Z,7.20
2018-08-24T13:59:01.126Z,6.87
2018-08-24T14:01:46.054Z,5.50
2018-08-24T14:04:31.104Z,7.67
2018-08-24T14:07:16.020Z,7.03
2018-08-24T14:10:00.901Z,5.63
2018-08-24T14:12:45.652Z,6.17
2018-08-24T14:15:30.467Z,11.13
2018-08-24T14:18:18.344Z,6.70
2018-08-24T14:21:03.304Z,6.10
2018-08-24T14:23:48.174Z,6.27
2018-08-24T14:26:33.296Z,7.17
2018-08-24T14:29:18.116Z,6.57
2018-08-24T14:32:02.994Z,5.60
2018-08-24T14:34:47.962Z,6.50
2018-08-24T14:37:32.839Z,5.67
2018-08-24T14:40:18.340Z,6.00
2018-08-24T14:43:03.169Z,7.33
2018-08-24T14:45:47.974Z,8.23
2018-08-24T14:48:32.988Z,8.67
2018-08-24T14:51:17.893Z,6.03
2018-08-24T14:54:02.750Z,5.47
2018-08-24T14:56:47.594Z,6.83
2018-08-24T14:59:32.431Z,7.07
2018-08-24T15:02:17.493Z,6.37
2018-08-24T15:05:02.541Z,5.47
2018-08-24T15:07:47.422Z,8.27
2018-08-24T15:10:32.311Z,7.27
2018-08-24T15:13:17.114Z,6.73
2018-08-24T15:16:01.984Z,7.70
2018-08-24T15:18:46.923Z,7.97
2018-08-24T15:21:31.719Z,6.67
2018-08-24T15:24:16.620Z,7.30
2018-08-24T15:27:02.454Z,6.80
2018-08-24T15:29:47.244Z,7.83
2018-08-24T15:32:32.243Z,6.80
2018-08-24T15:35:17.281Z,6.50
2018-08-24T15:38:02.034Z,6.40
2018-08-24T15:40:46.864Z,8.03
2018-08-24T15:43:31.664Z,6.83
2018-08-24T15:46:16.584Z,6.90
2018-08-24T15:49:01.478Z,8.80
2018-08-24T15:51:46.300Z,7.27
2018-08-24T15:54:31.103Z,8.63
2018-08-24T15:57:15.918Z,7.57
2018-08-24T16:00:01.036Z,6.90
2018-08-24T16:02:45.879Z,8.17
2018-08-24T16:05:30.716Z,8.07
2018-08-24T16:08:15.596Z,5.83
2018-08-24T16:11:00.438Z,6.93
2018-08-24T16:13:45.649Z,7.60
2018-08-24T16:16:30.421Z,7.00
2018-08-24T16:19:15.304Z,8.77
2018-08-24T16:22:00.082Z,6.93
2018-08-24T16:24:44.958Z,7.00
2018-08-24T16:27:33.490Z,6.47
2018-08-24T16:30:18.355Z,7.03
2018-08-24T16:33:03.176Z,7.80
2018-08-24T16:35:48.072Z,6.90
2018-08-24T16:38:33.297Z,8.20
2018-08-24T16:41:18.208Z,6.30
2018-08-24T16:44:02.995Z,8.27
2018-08-24T16:46:47.889Z,6.77
2018-08-24T16:49:32.690Z,7.83
2018-08-24T16:52:17.536Z,8.23
2018-08-24T16:55:02.421Z,6.17
2018-08-24T16:57:48.418Z,9.40
2018-08-24T17:00:33.333Z,9.00
2018-08-24T17:03:18.228Z,8.43
2018-08-24T17:06:03.039Z,7.53
2018-08-24T17:08:47.863Z,7.87
2018-08-24T17:11:32.677Z,7.20
2018-08-24T17:14:17.578Z,6.57
2018-08-24T17:17:02.444Z,7.27
2018-08-24T17:19:47.276Z,8.03
2018-08-24T17:22:32.099Z,5.87
2018-08-24T17:25:16.900Z,8.20
2018-08-24T17:28:01.725Z,6.97
2018-08-24T17:30:46.688Z,6.77
2018-08-24T17:33:31.413Z,9.77
2018-08-24T17:36:16.217Z,6.80
2018-08-24T17:39:01.128Z,7.37
2018-08-24T17:41:46.028Z,7.77
2018-08-24T17:44:30.780Z,6.43
2018-08-24T17:47:15.684Z,9.80
2018-08-24T17:50:00.451Z,6.47
2018-08-24T17:52:45.395Z,12.60
2018-08-24T17:55:30.396Z,11.83
2018-08-24T17:58:15.474Z,8.17
2018-08-24T18:01:00.532Z,7.77
2018-08-24T18:03:45.344Z,9.23
2018-08-24T18:06:30.131Z,6.87
2018-08-24T18:09:14.957Z,7.93
2018-08-24T18:11:59.854Z,6.90
2018-08-24T18:14:44.758Z,6.13
2018-08-24T18:17:29.575Z,7.63
2018-08-24T18:20:14.351Z,8.33
2018-08-24T18:22:59.314Z,7.13
2018-08-24T18:25:44.258Z,6.57
2018-08-24T18:28:29.036Z,6.87
2018-08-24T18:31:14.189Z,8.03
2018-08-24T18:33:59.167Z,6.00
2018-08-24T18:36:44.039Z,6.63
2018-08-24T18:39:28.888Z,7.53
2018-08-24T18:42:13.708Z,6.07
2018-08-24T18:44:58.692Z,7.23
2018-08-24T18:47:43.708Z,5.63
2018-08-24T18:50:28.467Z,7.90
2018-08-24T18:53:13.317Z,6.10
2018-08-24T18:55:58.372Z,5.60
2018-08-24T18:58:43.385Z,6.57
2018-08-24T19:01:28.348Z,5.53
2018-08-24T19:04:13.369Z,7.37
2018-08-24T19:06:58.352Z,8.90
2018-08-24T19:09:43.244Z,10.83
2018-08-24T19:12:29.638Z,6.80
2018-08-24T19:15:14.453Z,8.03
2018-08-24T19:18:04.340Z,6.17
2018-08-24T19:20:54.280Z,7.97
2018-08-24T19:23:39.189Z,9.90
2018-08-24T19:26:24.457Z,7.77
2018-08-24T19:29:14.375Z,7.80
2018-08-24T19:31:59.201Z,11.53
2018-08-24T19:34:44.107Z,8.83
2018-08-24T19:37:29.128Z,7.27
2018-08-24T19:40:19.039Z,10.83
2018-08-24T19:43:03.924Z,7.93
2018-08-24T19:45:49.013Z,7.87
2018-08-24T19:48:39.148Z,6.43
2018-08-24T19:51:24.112Z,7.10
2018-08-24T19:54:09.114Z,5.53
2018-08-24T19:56:54.146Z,10.63
2018-08-24T19:59:39.089Z,8.40
2018-08-24T20:02:24.776Z,7.97
2018-08-24T20:05:10.084Z,7.27
2018-08-24T20:07:59.913Z,7.30
2018-08-24T20:10:44.776Z,6.90
2018-08-24T20:13:29.688Z,7.50
2018-08-24T20:16:19.957Z,6.87
2018-08-24T20:19:05.056Z,9.17
2018-08-24T20:21:49.910Z,8.43
2018-08-24T20:24:34.857Z,7.70
2018-08-24T20:27:19.694Z,7.40
2018-08-24T20:30:04.997Z,7.93
2018-08-24T20:32:50.003Z,7.97
2018-08-24T20:35:35.057Z,9.13
2018-08-24T20:38:20.048Z,7.97
2018-08-24T20:41:04.876Z,5.70
2018-08-24T20:43:49.796Z,8.77
2018-08-24T20:46:34.726Z,9.17
2018-08-24T20:49:20.149Z,6.80
2018-08-24T20:52:05.057Z,6.70
2018-08-24T20:54:49.948Z,7.17
2018-08-24T20:57:34.909Z,7.07
2018-08-24T21:00:20.025Z,7.23
2018-08-24T21:03:04.929Z,9.80
2018-08-24T21:05:49.879Z,11.53
2018-08-24T21:08:34.711Z,6.17
2018-08-24T21:11:19.585Z,8.00
2018-08-24T21:14:04.544Z,9.03
2018-08-24T21:16:49.567Z,8.97
2018-08-24T21:19:34.412Z,10.37
2018-08-24T21:22:19.360Z,10.43
2018-08-24T21:25:04.482Z,7.57
2018-08-24T21:27:49.411Z,6.40
2018-08-24T21:30:34.412Z,10.57
2018-08-24T21:33:19.357Z,8.43
2018-08-24T21:36:04.308Z,10.73
2018-08-24T21:38:49.104Z,9.47
2018-08-24T21:41:34.017Z,9.37
2018-08-24T21:44:18.879Z,10.70
2018-08-24T21:47:04.003Z,7.93
2018-08-24T21:49:48.852Z,10.87
2018-08-24T21:52:33.810Z,7.70
2018-08-24T21:55:18.667Z,8.93
2018-08-24T21:58:03.761Z,7.10
2018-08-24T22:00:48.656Z,7.70
2018-08-24T22:03:33.656Z,10.83
2018-08-24T22:06:18.528Z,6.73
2018-08-24T22:09:03.416Z,8.63
2018-08-24T22:11:48.257Z,7.43
2018-08-24T22:14:33.164Z,9.17
2018-08-24T22:17:18.298Z,6.23
2018-08-24T22:20:03.116Z,7.13
2018-08-24T22:22:47.958Z,6.53
2018-08-24T22:25:32.867Z,5.77
2018-08-24T22:28:17.692Z,7.17
2018-08-24T22:31:02.459Z,6.83
2018-08-24T22:33:47.378Z,8.07
2018-08-24T22:36:32.133Z,6.70
2018-08-24T22:39:16.928Z,6.07
2018-08-24T22:42:01.646Z,4.60
2018-08-24T22:44:46.533Z,6.77
2018-08-24T22:47:31.330Z,7.20
2018-08-24T22:50:16.212Z,6.93
2018-08-24T22:53:01.098Z,6.87
2018-08-24T22:55:45.966Z,8.13
2018-08-24T22:58:30.772Z,6.77
2018-08-24T23:01:15.499Z,5.10
2018-08-24T23:04:00.396Z,5.13
2018-08-24T23:06:45.167Z,6.23
2018-08-24T23:09:30.030Z,4.10
2018-08-24T23:12:14.776Z,5.70
2018-08-24T23:14:59.653Z,4.10
2018-08-24T23:17:44.409Z,5.20
2018-08-24T23:20:29.239Z,8.87
2018-08-24T23:23:14.111Z,8.53
2018-08-24T23:25:58.926Z,5.40
2018-08-24T23:28:43.721Z,5.60
2018-08-24T23:31:28.544Z,5.53
2018-08-24T23:34:13.303Z,5.53
2018-08-24T23:36:58.037Z,4.97
2018-08-24T23:39:42.910Z,4.10
2018-08-24T23:42:27.674Z,5.57
2018-08-24T23:45:12.555Z,4.03
2018-08-24T23:47:57.375Z,6.57
2018-08-24T23:50:42.139Z,5.13
2018-08-24T23:53:26.892Z,5.60
2018-08-24T23:56:11.686Z,5.57
2018-08-24T23:58:56.705Z,7.93
